Time,TemperatureF,DewpointF,PressureIn,WindDirection,WindDirectionDegrees,WindSpeedMPH,WindSpeedGustMPH,Humidity,HourlyPrecipIn,Conditions,Clouds,dailyrainin,SolarRadiationWatts/m^2,SoftwareType,DateUTC
2013-04-27 00:08:00,55.0,48.0,30.23,East,83,3.0,11.0,78,0.00,,,0.00,0,weatherlink.com 1.10,2013-04-27 05:08:00,
2013-04-27 00:23:00,55.1,48.0,30.22,SE,135,6.0,10.0,78,0.00,,,0.00,0,weatherlink.com 1.10,2013-04-27 05:23:00,
2013-04-27 00:38:00,55.1,48.0,30.22,NNE,31,3.0,8.0,78,0.00,,,0.00,0,weatherlink.com 1.10,2013-04-27 05:38:00,
2013-04-27 00:53:00,54.8,48.0,30.22,NNE,33,6.0,9.0,78,0.00,,,0.00,0,weatherlink.com 1.10,2013-04-27 05:53:00,
2013-04-27 01:08:00,54.8,48.0,30.21,NNE,26,1.0,9.0,79,0.00,,,0.00,0,weatherlink.com 1.10,2013-04-27 06:08:00,
2013-04-27 01:23:00,54.5,48.0,30.21,SE,143,1.0,7.0,80,0.00,,,0.00,0,weatherlink.com 1.10,2013-04-27 06:23:00,
2013-04-27 01:38:00,54.5,48.0,30.19,ENE,71,5.0,9.0,80,0.00,,,0.00,0,weatherlink.com 1.10,2013-04-27 06:38:00,
2013-04-27 01:53:00,54.4,48.0,30.18,ENE,68,7.0,11.0,80,0.00,,,0.00,0,weatherlink.com 1.10,2013-04-27 06:53:00,
2013-04-27 02:08:00,54.4,48.0,30.17,East,81,9.0,11.0,80,0.00,,,0.00,0,weatherlink.com 1.10,2013-04-27 07:08:00,
2013-04-27 02:23:00,54.4,48.0,30.16,SE,133,5.0,10.0,80,0.00,,,0.00,0,weatherlink.com 1.10,2013-04-27 07:23:00,
2013-04-27 02:38:00,54.5,48.0,30.14,ENE,70,3.0,9.0,80,0.00,,,0.00,0,weatherlink.com 1.10,2013-04-27 07:38:00,
2013-04-27 02:53:00,54.5,48.0,30.14,South,170,4.0,7.0,80,0.00,,,0.00,0,weatherlink.com 1.10,2013-04-27 07:53:00,
2013-04-27 03:08:00,54.5,48.0,30.13,SE,145,2.0,10.0,80,0.00,,,0.00,0,weatherlink.com 1.10,2013-04-27 08:08:00,
2013-04-27 03:23:00,54.6,49.0,30.12,ESE,106,7.0,11.0,80,0.00,,,0.00,0,weatherlink.com 1.10,2013-04-27 08:23:00,
2013-04-27 03:38:00,54.6,49.0,30.11,SE,140,4.0,8.0,80,0.00,,,0.00,0,weatherlink.com 1.10,2013-04-27 08:38:00,
2013-04-27 03:53:00,54.7,49.0,30.11,ESE,117,2.0,9.0,80,0.00,,,0.00,0,weatherlink.com 1.10,2013-04-27 08:53:00,
2013-04-27 04:08:00,54.9,49.0,30.12,ESE,114,2.0,5.0,80,0.00,,,0.00,0,weatherlink.com 1.10,2013-04-27 09:08:00,
2013-04-27 04:23:00,55.0,49.0,30.11,East,100,3.0,7.0,80,0.00,,,0.00,0,weatherlink.com 1.10,2013-04-27 09:23:00,
2013-04-27 04:38:00,55.1,49.0,30.10,SSE,159,3.0,6.0,81,0.00,,,0.00,0,weatherlink.com 1.10,2013-04-27 09:38:00,
2013-04-27 04:53:00,55.1,50.0,30.09,SSE,158,3.0,6.0,82,0.00,,,0.00,0,weatherlink.com 1.10,2013-04-27 09:53:00,
2013-04-27 05:08:00,55.0,50.0,30.08,East,94,3.0,7.0,83,0.00,,,0.00,0,weatherlink.com 1.10,2013-04-27 10:08:00,
2013-04-27 05:23:00,55.0,50.0,30.08,ESE,108,3.0,8.0,84,0.00,,,0.00,0,weatherlink.com 1.10,2013-04-27 10:23:00,
2013-04-27 05:38:00,55.0,51.0,30.08,SE,136,5.0,8.0,86,0.00,,,0.00,0,weatherlink.com 1.10,2013-04-27 10:38:00,
2013-04-27 05:53:00,55.1,51.0,30.09,SSE,155,4.0,7.0,86,0.00,,,0.00,0,weatherlink.com 1.10,2013-04-27 10:53:00,
2013-04-27 06:08:00,55.3,52.0,30.10,NW,313,2.0,4.0,87,0.00,,,0.00,0,weatherlink.com 1.10,2013-04-27 11:08:00,
2013-04-27 06:25:00,55.1,51.0,30.09,East,88,1.0,2.0,87,0.00,,,0.00,0,weatherlink.com 1.10,2013-04-27 11:25:00,
2013-04-27 06:40:00,55.1,52.0,30.11,East,88,0.0,2.0,88,0.00,,,0.00,0,weatherlink.com 1.10,2013-04-27 11:40:00,
2013-04-27 06:55:00,55.1,52.0,30.11,East,88,2.0,3.0,89,0.00,,,0.00,0,weatherlink.com 1.10,2013-04-27 11:55:00,
2013-04-27 07:10:00,55.1,52.0,30.11,NE,38,1.0,3.0,90,0.01,,,0.01,5,weatherlink.com 1.10,2013-04-27 12:10:00,
2013-04-27 07:25:00,55.0,53.0,30.11,NE,38,1.0,3.0,91,0.01,,,0.01,7,weatherlink.com 1.10,2013-04-27 12:25:00,
2013-04-27 07:40:00,54.9,52.0,30.11,SSE,160,1.0,4.0,91,0.01,,,0.01,28,weatherlink.com 1.10,2013-04-27 12:40:00,
2013-04-27 07:55:00,54.8,53.0,30.11,South,184,0.0,4.0,92,0.01,,,0.01,23,weatherlink.com 1.10,2013-04-27 12:55:00,
2013-04-27 08:10:00,55.0,53.0,30.10,NE,41,2.0,3.0,92,0.00,,,0.01,49,weatherlink.com 1.10,2013-04-27 13:10:00,
2013-04-27 08:25:00,55.1,53.0,30.11,ESE,114,0.0,2.0,92,0.00,,,0.01,40,weatherlink.com 1.10,2013-04-27 13:25:00,
2013-04-27 08:41:00,55.4,54.0,30.11,SSE,155,0.0,5.0,93,0.00,,,0.01,93,weatherlink.com 1.10,2013-04-27 13:41:00,
2013-04-27 08:55:00,56.0,54.0,30.10,SSE,148,4.0,5.0,93,0.00,,,0.01,123,weatherlink.com 1.10,2013-04-27 13:55:00,
2013-04-27 09:11:00,56.6,55.0,30.10,SE,126,2.0,5.0,93,0.00,,,0.01,128,weatherlink.com 1.10,2013-04-27 14:11:00,
2013-04-27 09:26:00,57.2,55.0,30.09,SE,124,3.0,7.0,93,0.00,,,0.01,135,weatherlink.com 1.10,2013-04-27 14:26:00,
2013-04-27 09:41:00,58.2,56.0,30.08,SSE,167,6.0,8.0,93,0.00,,,0.01,171,weatherlink.com 1.10,2013-04-27 14:41:00,
2013-04-27 09:56:00,59.3,57.0,30.08,South,178,2.0,9.0,93,0.00,,,0.01,116,weatherlink.com 1.10,2013-04-27 14:56:00,
2013-04-27 10:11:00,60.3,58.0,30.08,SSE,161,5.0,8.0,93,0.00,,,0.01,338,weatherlink.com 1.10,2013-04-27 15:11:00,
2013-04-27 10:27:00,61.1,59.0,30.08,SSW,196,2.0,9.0,92,0.00,,,0.01,111,weatherlink.com 1.10,2013-04-27 15:27:00,
2013-04-27 10:42:00,62.0,60.0,30.08,South,174,6.0,7.0,93,0.00,,,0.01,271,weatherlink.com 1.10,2013-04-27 15:42:00,
2013-04-27 10:58:00,64.2,62.0,30.08,South,178,3.0,9.0,93,0.00,,,0.01,123,weatherlink.com 1.10,2013-04-27 15:58:00,
2013-04-27 11:13:00,65.1,63.0,30.09,South,180,5.0,8.0,92,0.00,,,0.01,125,weatherlink.com 1.10,2013-04-27 16:13:00,
2013-04-27 11:29:00,66.1,64.0,30.09,South,185,6.0,9.0,92,0.00,,,0.01,399,weatherlink.com 1.10,2013-04-27 16:29:00,
2013-04-27 11:43:00,68.5,66.0,30.08,South,171,7.0,11.0,92,0.00,,,0.01,1009,weatherlink.com 1.10,2013-04-27 16:43:00,
2013-04-27 11:59:00,69.0,65.0,30.08,South,178,4.0,10.0,86,0.00,,,0.01,380,weatherlink.com 1.10,2013-04-27 16:59:00,
2013-04-27 12:14:00,68.5,64.0,30.08,SW,222,5.0,13.0,86,0.00,,,0.01,153,weatherlink.com 1.10,2013-04-27 17:14:00,
2013-04-27 12:30:00,68.1,65.0,30.07,SSW,210,3.0,10.0,88,0.01,,,0.02,114,weatherlink.com 1.10,2013-04-27 17:30:00,
2013-04-27 12:45:00,67.7,64.0,30.07,SSE,166,4.0,8.0,89,0.01,,,0.02,113,weatherlink.com 1.10,2013-04-27 17:45:00,
2013-04-27 13:00:00,67.9,65.0,30.06,SSW,199,3.0,7.0,89,0.01,,,0.02,142,weatherlink.com 1.10,2013-04-27 18:00:00,
2013-04-27 13:15:00,68.2,65.0,30.06,SSW,193,3.0,9.0,89,0.01,,,0.02,200,weatherlink.com 1.10,2013-04-27 18:15:00,
2013-04-27 13:30:00,68.9,66.0,30.05,South,191,4.0,8.0,89,0.00,,,0.02,236,weatherlink.com 1.10,2013-04-27 18:30:00,
2013-04-27 13:46:00,69.3,65.0,30.05,SW,223,4.0,9.0,87,0.00,,,0.02,232,weatherlink.com 1.10,2013-04-27 18:46:00,
2013-04-27 14:00:00,69.7,65.0,30.04,South,187,3.0,12.0,84,0.00,,,0.02,424,weatherlink.com 1.10,2013-04-27 19:00:00,
2013-04-27 14:16:00,68.7,65.0,30.04,SSW,198,5.0,13.0,87,0.00,,,0.02,265,weatherlink.com 1.10,2013-04-27 19:16:00,
2013-04-27 14:31:00,68.3,65.0,30.02,SSW,193,7.0,8.0,90,0.00,,,0.02,499,weatherlink.com 1.10,2013-04-27 19:31:00,
2013-04-27 14:46:00,68.9,65.0,30.01,South,189,9.0,10.0,88,0.00,,,0.02,311,weatherlink.com 1.10,2013-04-27 19:46:00,
2013-04-27 15:02:00,70.7,66.0,30.00,South,184,5.0,10.0,85,0.00,,,0.02,366,weatherlink.com 1.10,2013-04-27 20:02:00,
2013-04-27 15:16:00,70.6,66.0,30.00,SSW,210,6.0,10.0,84,0.00,,,0.02,151,weatherlink.com 1.10,2013-04-27 20:16:00,
2013-04-27 15:33:00,70.5,66.0,29.99,SW,221,4.0,9.0,84,0.00,,,0.02,279,weatherlink.com 1.10,2013-04-27 20:33:00,
2013-04-27 15:48:00,71.0,66.0,29.98,SSW,200,7.0,7.0,84,0.00,,,0.02,499,weatherlink.com 1.10,2013-04-27 20:48:00,
2013-04-27 16:03:00,71.9,66.0,29.97,SW,229,7.0,8.0,82,0.00,,,0.02,178,weatherlink.com 1.10,2013-04-27 21:03:00,
2013-04-27 16:18:00,71.9,66.0,29.97,SW,230,1.0,9.0,82,0.00,,,0.02,114,weatherlink.com 1.10,2013-04-27 21:18:00,
2013-04-27 16:33:00,71.7,66.0,29.97,South,191,7.0,7.0,81,0.00,,,0.02,65,weatherlink.com 1.10,2013-04-27 21:33:00,
2013-04-27 16:49:00,72.2,65.0,29.95,South,172,5.0,11.0,79,0.00,,,0.02,239,weatherlink.com 1.10,2013-04-27 21:49:00,
2013-04-27 17:03:00,72.6,65.0,29.95,SSW,195,6.0,12.0,78,0.00,,,0.02,276,weatherlink.com 1.10,2013-04-27 22:03:00,
2013-04-27 17:20:00,72.1,66.0,29.93,SSW,200,4.0,10.0,81,0.00,,,0.02,265,weatherlink.com 1.10,2013-04-27 22:20:00,
2013-04-27 17:35:00,72.4,67.0,29.93,SW,228,6.0,9.0,82,0.00,,,0.02,221,weatherlink.com 1.10,2013-04-27 22:35:00,
2013-04-27 17:50:00,73.2,66.0,29.92,SSW,193,4.0,9.0,78,0.00,,,0.02,72,weatherlink.com 1.10,2013-04-27 22:50:00,
2013-04-27 18:05:00,72.6,66.0,29.93,SSW,195,4.0,7.0,79,0.00,,,0.02,47,weatherlink.com 1.10,2013-04-27 23:05:00,
2013-04-27 18:20:00,72.4,66.0,29.93,SSW,193,4.0,7.0,79,0.01,,,0.03,51,weatherlink.com 1.10,2013-04-27 23:20:00,
2013-04-27 18:35:00,72.1,65.0,29.92,SSW,195,3.0,8.0,79,0.01,,,0.03,33,weatherlink.com 1.10,2013-04-27 23:35:00,
2013-04-27 18:50:00,71.6,65.0,29.92,South,189,1.0,3.0,80,0.01,,,0.03,16,weatherlink.com 1.10,2013-04-27 23:50:00,
2013-04-27 19:06:00,71.1,65.0,29.91,South,172,2.0,6.0,81,0.01,,,0.03,9,weatherlink.com 1.10,2013-04-28 00:06:00,
2013-04-27 19:21:00,71.0,65.0,29.87,SSE,155,7.0,10.0,81,0.00,,,0.03,18,weatherlink.com 1.10,2013-04-28 00:21:00,
2013-04-27 19:36:00,71.1,65.0,29.88,SE,143,2.0,7.0,80,0.00,,,0.03,25,weatherlink.com 1.10,2013-04-28 00:36:00,
2013-04-27 19:51:00,71.2,64.0,29.88,South,185,0.0,4.0,79,0.00,,,0.03,0,weatherlink.com 1.10,2013-04-28 00:51:00,
2013-04-27 20:06:00,71.0,65.0,29.87,SE,135,2.0,7.0,80,0.00,,,0.03,0,weatherlink.com 1.10,2013-04-28 01:06:00,
2013-04-27 20:22:00,71.0,65.0,29.89,SW,221,0.0,6.0,80,0.00,,,0.03,0,weatherlink.com 1.10,2013-04-28 01:22:00,
2013-04-27 20:37:00,71.0,64.0,29.90,SSW,205,2.0,12.0,79,0.00,,,0.03,0,weatherlink.com 1.10,2013-04-28 01:37:00,
2013-04-27 20:52:00,71.0,65.0,29.90,SSW,205,0.0,4.0,80,0.00,,,0.03,0,weatherlink.com 1.10,2013-04-28 01:52:00,
2013-04-27 21:07:00,70.6,65.0,29.91,West,280,0.0,4.0,81,0.00,,,0.03,0,weatherlink.com 1.10,2013-04-28 02:07:00,
2013-04-27 21:22:00,70.4,65.0,29.91,NNW,327,2.0,6.0,82,0.00,,,0.03,0,weatherlink.com 1.10,2013-04-28 02:22:00,
2013-04-27 21:37:00,70.1,65.0,29.93,NW,307,4.0,9.0,83,0.00,,,0.03,0,weatherlink.com 1.10,2013-04-28 02:37:00,
2013-04-27 21:52:00,67.8,63.0,29.95,NW,319,4.0,8.0,84,0.00,,,0.03,0,weatherlink.com 1.10,2013-04-28 02:52:00,
2013-04-27 22:07:00,66.4,62.0,29.94,NNW,330,6.0,6.0,86,0.00,,,0.03,0,weatherlink.com 1.10,2013-04-28 03:07:00,
2013-04-27 22:22:00,65.7,62.0,29.95,NW,326,2.0,5.0,87,0.00,,,0.03,0,weatherlink.com 1.10,2013-04-28 03:22:00,
2013-04-27 22:37:00,64.7,61.0,29.96,WNW,296,2.0,8.0,86,0.00,,,0.03,0,weatherlink.com 1.10,2013-04-28 03:37:00,
2013-04-27 22:52:00,63.2,60.0,29.95,NNW,335,6.0,10.0,88,0.00,,,0.03,0,weatherlink.com 1.10,2013-04-28 03:52:00,
2013-04-27 23:07:00,62.5,59.0,29.96,WNW,282,5.0,10.0,89,0.00,,,0.03,0,weatherlink.com 1.10,2013-04-28 04:07:00,
2013-04-27 23:22:00,62.0,59.0,29.97,NW,312,3.0,6.0,90,0.00,,,0.03,0,weatherlink.com 1.10,2013-04-28 04:22:00,
2013-04-27 23:37:00,61.4,59.0,29.97,WNW,286,4.0,8.0,90,0.00,,,0.03,0,weatherlink.com 1.10,2013-04-28 04:37:00,
2013-04-27 23:52:00,60.8,58.0,29.96,NW,304,5.0,7.0,90,0.00,,,0.03,0,weatherlink.com 1.10,2013-04-28 04:52:00,